sensor_id;sensor_type;location;lat;lon;timestamp;temperature;humidity
20512;DHT22;10414;52.074;5.126;2024-01-06T00:02:26;11.50;99.90
20512;DHT22;10414;52.074;5.126;2024-01-06T00:04:53;11.60;99.90
20512;DHT22;10414;52.074;5.126;2024-01-06T00:07:20;11.50;99.90
20512;DHT22;10414;52.074;5.126;2024-01-06T00:09:47;11.50;99.90
20512;DHT22;10414;52.074;5.126;2024-01-06T00:12:14;11.50;99.90
20512;DHT22;10414;52.074;5.126;2024-01-06T00:14:40;11.50;99.90
20512;DHT22;10414;52.074;5.126;2024-01-06T00:17:12;11.50;99.90
20512;DHT22;10414;52.074;5.126;2024-01-06T00:19:39;11.50;99.90
20512;DHT22;10414;52.074;5.126;2024-01-06T00:22:05;11.40;99.90
20512;DHT22;10414;52.074;5.126;2024-01-06T00:24:32;11.50;99.90
20512;DHT22;10414;52.074;5.126;2024-01-06T00:26:59;11.50;99.90
20512;DHT22;10414;52.074;5.126;2024-01-06T00:29:26;11.40;99.90
20512;DHT22;10414;52.074;5.126;2024-01-06T00:31:53;11.40;99.90
20512;DHT22;10414;52.074;5.126;2024-01-06T00:34:21;11.40;99.90
20512;DHT22;10414;52.074;5.126;2024-01-06T00:36:48;11.30;99.90
20512;DHT22;10414;52.074;5.126;2024-01-06T00:39:15;11.40;99.90
20512;DHT22;10414;52.074;5.126;2024-01-06T00:41:41;11.40;99.90
20512;DHT22;10414;52.074;5.126;2024-01-06T00:44:08;11.30;99.90
20512;DHT22;10414;52.074;5.126;2024-01-06T00:46:35;11.40;99.90
20512;DHT22;10414;52.074;5.126;2024-01-06T00:49:02;11.40;99.90
20512;DHT22;10414;52.074;5.126;2024-01-06T00:51:30;11.40;99.90
20512;DHT22;10414;52.074;5.126;2024-01-06T00:53:58;11.40;99.90
20512;DHT22;10414;52.074;5.126;2024-01-06T00:56:24;11.40;99.90
20512;DHT22;10414;52.074;5.126;2024-01-06T00:58:52;11.30;99.90
20512;DHT22;10414;52.074;5.126;2024-01-06T01:01:19;11.30;99.90
20512;DHT22;10414;52.074;5.126;2024-01-06T01:03:46;11.30;99.90
20512;DHT22;10414;52.074;5.126;2024-01-06T01:06:13;11.30;99.90
20512;DHT22;10414;52.074;5.126;2024-01-06T01:08:41;11.30;99.90
20512;DHT22;10414;52.074;5.126;2024-01-06T01:11:08;11.40;99.90
20512;DHT22;10414;52.074;5.126;2024-01-06T01:13:35;11.30;99.90
20512;DHT22;10414;52.074;5.126;2024-01-06T01:16:02;11.30;99.90
20512;DHT22;10414;52.074;5.126;2024-01-06T01:18:29;11.30;99.90
20512;DHT22;10414;52.074;5.126;2024-01-06T01:20:56;11.30;99.90
20512;DHT22;10414;52.074;5.126;2024-01-06T01:23:23;11.30;99.90
20512;DHT22;10414;52.074;5.126;2024-01-06T01:25:51;11.30;99.90
20512;DHT22;10414;52.074;5.126;2024-01-06T01:28:17;11.30;99.90
20512;DHT22;10414;52.074;5.126;2024-01-06T01:30:44;11.30;99.90
20512;DHT22;10414;52.074;5.126;2024-01-06T01:33:11;11.30;99.90
20512;DHT22;10414;52.074;5.126;2024-01-06T01:35:38;11.30;99.90
20512;DHT22;10414;52.074;5.126;2024-01-06T01:38:06;11.30;99.90
20512;DHT22;10414;52.074;5.126;2024-01-06T01:40:33;11.20;99.90
20512;DHT22;10414;52.074;5.126;2024-01-06T01:43:01;11.20;99.90
20512;DHT22;10414;52.074;5.126;2024-01-06T01:45:28;11.20;99.90
20512;DHT22;10414;52.074;5.126;2024-01-06T01:47:55;11.30;99.90
20512;DHT22;10414;52.074;5.126;2024-01-06T01:50:22;11.30;99.90
20512;DHT22;10414;52.074;5.126;2024-01-06T01:52:53;11.30;99.90
20512;DHT22;10414;52.074;5.126;2024-01-06T01:55:21;11.20;99.90
20512;DHT22;10414;52.074;5.126;2024-01-06T01:57:48;11.20;99.90
20512;DHT22;10414;52.074;5.126;2024-01-06T02:00:16;11.20;99.90
20512;DHT22;10414;52.074;5.126;2024-01-06T02:02:43;11.20;99.90
20512;DHT22;10414;52.074;5.126;2024-01-06T02:05:10;11.20;99.90
20512;DHT22;10414;52.074;5.126;2024-01-06T02:07:37;11.10;99.90
20512;DHT22;10414;52.074;5.126;2024-01-06T02:10:05;11.10;99.90
20512;DHT22;10414;52.074;5.126;2024-01-06T02:12:32;11.10;99.90
20512;DHT22;10414;52.074;5.126;2024-01-06T02:14:59;11.10;99.90
20512;DHT22;10414;52.074;5.126;2024-01-06T02:17:27;11.10;99.90
20512;DHT22;10414;52.074;5.126;2024-01-06T02:19:54;11.10;99.90
20512;DHT22;10414;52.074;5.126;2024-01-06T02:22:23;11.10;99.90
20512;DHT22;10414;52.074;5.126;2024-01-06T02:24:50;11.00;99.90
20512;DHT22;10414;52.074;5.126;2024-01-06T02:27:16;11.00;99.90
20512;DHT22;10414;52.074;5.126;2024-01-06T02:29:43;11.00;99.90
20512;DHT22;10414;52.074;5.126;2024-01-06T02:32:10;11.00;99.90
20512;DHT22;10414;52.074;5.126;2024-01-06T02:34:37;11.00;99.90
20512;DHT22;10414;52.074;5.126;2024-01-06T02:37:04;11.00;99.90
20512;DHT22;10414;52.074;5.126;2024-01-06T02:39:32;11.00;99.90
20512;DHT22;10414;52.074;5.126;2024-01-06T02:41:59;11.00;99.90
20512;DHT22;10414;52.074;5.126;2024-01-06T02:44:26;11.00;99.90
20512;DHT22;10414;52.074;5.126;2024-01-06T02:46:52;10.90;99.90
20512;DHT22;10414;52.074;5.126;2024-01-06T02:49:20;11.00;99.90
20512;DHT22;10414;52.074;5.126;2024-01-06T02:51:46;10.90;99.90
20512;DHT22;10414;52.074;5.126;2024-01-06T02:54:13;10.90;99.90
20512;DHT22;10414;52.074;5.126;2024-01-06T02:56:41;10.90;99.90
20512;DHT22;10414;52.074;5.126;2024-01-06T02:59:08;10.90;99.90
20512;DHT22;10414;52.074;5.126;2024-01-06T03:01:35;10.80;99.90
20512;DHT22;10414;52.074;5.126;2024-01-06T03:04:02;10.80;99.90
20512;DHT22;10414;52.074;5.126;2024-01-06T03:06:29;10.80;99.90
20512;DHT22;10414;52.074;5.126;2024-01-06T03:08:55;10.80;99.90
20512;DHT22;10414;52.074;5.126;2024-01-06T03:11:22;10.80;99.90
20512;DHT22;10414;52.074;5.126;2024-01-06T03:13:50;10.80;99.90
20512;DHT22;10414;52.074;5.126;2024-01-06T03:16:17;10.70;99.90
20512;DHT22;10414;52.074;5.126;2024-01-06T03:18:44;10.80;99.90
20512;DHT22;10414;52.074;5.126;2024-01-06T03:21:19;10.80;99.90
20512;DHT22;10414;52.074;5.126;2024-01-06T03:23:46;10.80;99.90
20512;DHT22;10414;52.074;5.126;2024-01-06T03:26:13;10.80;99.90
20512;DHT22;10414;52.074;5.126;2024-01-06T03:28:39;10.80;99.90
20512;DHT22;10414;52.074;5.126;2024-01-06T03:31:07;10.70;99.90
20512;DHT22;10414;52.074;5.126;2024-01-06T03:33:34;10.80;99.90
20512;DHT22;10414;52.074;5.126;2024-01-06T03:36:04;10.70;99.90
20512;DHT22;10414;52.074;5.126;2024-01-06T03:38:32;10.70;99.90
20512;DHT22;10414;52.074;5.126;2024-01-06T03:40:58;10.70;99.90
20512;DHT22;10414;52.074;5.126;2024-01-06T03:43:25;10.70;99.90
20512;DHT22;10414;52.074;5.126;2024-01-06T03:45:52;10.60;99.90
20512;DHT22;10414;52.074;5.126;2024-01-06T03:48:22;10.70;99.90
20512;DHT22;10414;52.074;5.126;2024-01-06T03:50:49;10.70;99.90
20512;DHT22;10414;52.074;5.126;2024-01-06T03:53:16;10.60;99.90
20512;DHT22;10414;52.074;5.126;2024-01-06T03:55:43;10.60;99.90
20512;DHT22;10414;52.074;5.126;2024-01-06T03:58:09;10.60;99.90
20512;DHT22;10414;52.074;5.126;2024-01-06T04:00:36;10.60;99.90
20512;DHT22;10414;52.074;5.126;2024-01-06T04:03:03;10.70;99.90
20512;DHT22;10414;52.074;5.126;2024-01-06T04:05:32;10.70;99.90
20512;DHT22;10414;52.074;5.126;2024-01-06T04:07:59;10.70;99.90
20512;DHT22;10414;52.074;5.126;2024-01-06T04:10:26;10.70;99.90
20512;DHT22;10414;52.074;5.126;2024-01-06T04:12:53;10.70;99.90
20512;DHT22;10414;52.074;5.126;2024-01-06T04:15:20;10.70;99.90
20512;DHT22;10414;52.074;5.126;2024-01-06T04:17:48;10.60;99.90
20512;DHT22;10414;52.074;5.126;2024-01-06T04:20:15;10.70;99.90
20512;DHT22;10414;52.074;5.126;2024-01-06T04:22:43;10.60;99.90
20512;DHT22;10414;52.074;5.126;2024-01-06T04:25:11;10.60;99.90
20512;DHT22;10414;52.074;5.126;2024-01-06T04:27:38;10.60;99.90
20512;DHT22;10414;52.074;5.126;2024-01-06T04:30:05;10.60;99.90
20512;DHT22;10414;52.074;5.126;2024-01-06T04:32:32;10.60;99.90
20512;DHT22;10414;52.074;5.126;2024-01-06T04:34:59;10.60;99.90
20512;DHT22;10414;52.074;5.126;2024-01-06T04:37:26;10.60;99.90
20512;DHT22;10414;52.074;5.126;2024-01-06T04:39:54;10.60;99.90
20512;DHT22;10414;52.074;5.126;2024-01-06T04:42:21;10.60;99.90
20512;DHT22;10414;52.074;5.126;2024-01-06T04:44:48;10.60;99.90
20512;DHT22;10414;52.074;5.126;2024-01-06T04:47:15;10.50;99.90
20512;DHT22;10414;52.074;5.126;2024-01-06T04:49:42;10.60;99.90
20512;DHT22;10414;52.074;5.126;2024-01-06T04:52:09;10.60;99.90
20512;DHT22;10414;52.074;5.126;2024-01-06T04:54:36;10.60;99.90
20512;DHT22;10414;52.074;5.126;2024-01-06T04:57:04;10.60;99.90
20512;DHT22;10414;52.074;5.126;2024-01-06T04:59:31;10.60;99.90
20512;DHT22;10414;52.074;5.126;2024-01-06T05:01:58;10.60;99.90
20512;DHT22;10414;52.074;5.126;2024-01-06T05:04:25;10.60;99.90
20512;DHT22;10414;52.074;5.126;2024-01-06T05:06:52;10.60;99.90
20512;DHT22;10414;52.074;5.126;2024-01-06T05:09:19;10.60;99.90
20512;DHT22;10414;52.074;5.126;2024-01-06T05:11:46;10.50;99.90
20512;DHT22;10414;52.074;5.126;2024-01-06T05:14:14;10.50;99.90
20512;DHT22;10414;52.074;5.126;2024-01-06T05:16:41;10.60;99.90
20512;DHT22;10414;52.074;5.126;2024-01-06T05:19:09;10.50;99.90
20512;DHT22;10414;52.074;5.126;2024-01-06T05:21:36;10.60;99.90
20512;DHT22;10414;52.074;5.126;2024-01-06T05:24:03;10.60;99.90
20512;DHT22;10414;52.074;5.126;2024-01-06T05:26:30;10.60;99.90
20512;DHT22;10414;52.074;5.126;2024-01-06T05:28:57;10.50;99.90
20512;DHT22;10414;52.074;5.126;2024-01-06T05:31:25;10.50;99.90
20512;DHT22;10414;52.074;5.126;2024-01-06T05:33:53;10.50;99.90
20512;DHT22;10414;52.074;5.126;2024-01-06T05:36:19;10.50;99.90
20512;DHT22;10414;52.074;5.126;2024-01-06T05:38:46;10.50;99.90
20512;DHT22;10414;52.074;5.126;2024-01-06T05:41:13;10.50;99.90
20512;DHT22;10414;52.074;5.126;2024-01-06T05:43:40;10.50;99.90
20512;DHT22;10414;52.074;5.126;2024-01-06T05:46:07;10.50;99.90
20512;DHT22;10414;52.074;5.126;2024-01-06T05:48:35;10.50;99.90
20512;DHT22;10414;52.074;5.126;2024-01-06T05:51:04;10.50;99.90
20512;DHT22;10414;52.074;5.126;2024-01-06T05:53:32;10.40;99.90
20512;DHT22;10414;52.074;5.126;2024-01-06T05:55:59;10.50;99.90
20512;DHT22;10414;52.074;5.126;2024-01-06T06:00:53;10.40;99.90
20512;DHT22;10414;52.074;5.126;2024-01-06T06:03:20;10.40;99.90
20512;DHT22;10414;52.074;5.126;2024-01-06T06:05:48;10.40;99.90
20512;DHT22;10414;52.074;5.126;2024-01-06T06:08:15;10.40;99.90
20512;DHT22;10414;52.074;5.126;2024-01-06T06:10:42;10.40;99.90
20512;DHT22;10414;52.074;5.126;2024-01-06T06:15:50;10.30;99.90
20512;DHT22;10414;52.074;5.126;2024-01-06T06:18:18;10.30;99.90
20512;DHT22;10414;52.074;5.126;2024-01-06T06:20:44;10.40;99.90
20512;DHT22;10414;52.074;5.126;2024-01-06T06:23:13;10.30;99.90
20512;DHT22;10414;52.074;5.126;2024-01-06T06:25:40;10.30;99.90
20512;DHT22;10414;52.074;5.126;2024-01-06T06:28:07;10.30;99.90
20512;DHT22;10414;52.074;5.126;2024-01-06T06:30:34;10.30;99.90
20512;DHT22;10414;52.074;5.126;2024-01-06T06:33:00;10.30;99.90
20512;DHT22;10414;52.074;5.126;2024-01-06T06:35:27;10.30;99.90
20512;DHT22;10414;52.074;5.126;2024-01-06T06:37:54;10.30;99.90
20512;DHT22;10414;52.074;5.126;2024-01-06T06:40:22;10.30;99.90
20512;DHT22;10414;52.074;5.126;2024-01-06T06:42:49;10.20;99.90
20512;DHT22;10414;52.074;5.126;2024-01-06T06:45:16;10.20;99.90
20512;DHT22;10414;52.074;5.126;2024-01-06T06:47:46;10.30;99.90
20512;DHT22;10414;52.074;5.126;2024-01-06T06:50:13;10.20;99.90
20512;DHT22;10414;52.074;5.126;2024-01-06T06:52:40;10.30;99.90
20512;DHT22;10414;52.074;5.126;2024-01-06T06:55:07;10.30;99.90
20512;DHT22;10414;52.074;5.126;2024-01-06T06:57:36;10.30;99.90
20512;DHT22;10414;52.074;5.126;2024-01-06T07:00:03;10.40;99.90
20512;DHT22;10414;52.074;5.126;2024-01-06T07:02:30;10.30;99.90
20512;DHT22;10414;52.074;5.126;2024-01-06T07:04:57;10.30;99.90
20512;DHT22;10414;52.074;5.126;2024-01-06T07:07:24;10.30;99.90
20512;DHT22;10414;52.074;5.126;2024-01-06T07:09:50;10.20;99.90
20512;DHT22;10414;52.074;5.126;2024-01-06T07:12:17;10.20;99.90
20512;DHT22;10414;52.074;5.126;2024-01-06T07:14:45;10.20;99.90
20512;DHT22;10414;52.074;5.126;2024-01-06T07:17:12;10.20;99.90
20512;DHT22;10414;52.074;5.126;2024-01-06T07:19:39;10.30;99.90
20512;DHT22;10414;52.074;5.126;2024-01-06T07:22:06;10.20;99.90
20512;DHT22;10414;52.074;5.126;2024-01-06T07:24:33;10.20;99.90
20512;DHT22;10414;52.074;5.126;2024-01-06T07:27:01;10.20;99.90
20512;DHT22;10414;52.074;5.126;2024-01-06T07:29:29;10.10;99.90
20512;DHT22;10414;52.074;5.126;2024-01-06T07:31:57;10.20;99.90
20512;DHT22;10414;52.074;5.126;2024-01-06T07:34:24;10.20;99.90
20512;DHT22;10414;52.074;5.126;2024-01-06T07:36:51;10.20;99.90
20512;DHT22;10414;52.074;5.126;2024-01-06T07:39:18;10.10;99.90
20512;DHT22;10414;52.074;5.126;2024-01-06T07:41:45;10.10;99.90
20512;DHT22;10414;52.074;5.126;2024-01-06T07:44:12;10.10;99.90
20512;DHT22;10414;52.074;5.126;2024-01-06T07:46:39;10.10;99.90
20512;DHT22;10414;52.074;5.126;2024-01-06T07:49:07;10.10;99.90
20512;DHT22;10414;52.074;5.126;2024-01-06T07:51:34;10.10;99.90
20512;DHT22;10414;52.074;5.126;2024-01-06T07:54:01;10.10;99.90
20512;DHT22;10414;52.074;5.126;2024-01-06T07:56:27;10.10;99.90
20512;DHT22;10414;52.074;5.126;2024-01-06T07:58:54;10.10;99.90
20512;DHT22;10414;52.074;5.126;2024-01-06T08:01:21;10.10;99.90
20512;DHT22;10414;52.074;5.126;2024-01-06T08:03:48;10.10;99.90
20512;DHT22;10414;52.074;5.126;2024-01-06T08:06:16;10.10;99.90
20512;DHT22;10414;52.074;5.126;2024-01-06T08:08:43;10.20;99.90
20512;DHT22;10414;52.074;5.126;2024-01-06T08:11:11;10.20;99.90
20512;DHT22;10414;52.074;5.126;2024-01-06T08:13:38;10.10;99.90
20512;DHT22;10414;52.074;5.126;2024-01-06T08:16:05;10.10;99.90
20512;DHT22;10414;52.074;5.126;2024-01-06T08:18:32;10.10;99.90
20512;DHT22;10414;52.074;5.126;2024-01-06T08:20:59;10.10;99.90
20512;DHT22;10414;52.074;5.126;2024-01-06T08:23:27;10.10;99.90
20512;DHT22;10414;52.074;5.126;2024-01-06T08:25:54;10.10;99.90
20512;DHT22;10414;52.074;5.126;2024-01-06T08:28:21;10.10;99.90
20512;DHT22;10414;52.074;5.126;2024-01-06T08:30:48;10.10;99.90
20512;DHT22;10414;52.074;5.126;2024-01-06T08:33:15;10.10;99.90
20512;DHT22;10414;52.074;5.126;2024-01-06T08:35:43;10.10;99.90
20512;DHT22;10414;52.074;5.126;2024-01-06T08:38:10;10.20;99.90
20512;DHT22;10414;52.074;5.126;2024-01-06T08:40:38;10.10;99.90
20512;DHT22;10414;52.074;5.126;2024-01-06T08:43:05;10.20;99.90
20512;DHT22;10414;52.074;5.126;2024-01-06T08:45:31;10.20;99.90
20512;DHT22;10414;52.074;5.126;2024-01-06T08:47:58;10.10;99.90
20512;DHT22;10414;52.074;5.126;2024-01-06T08:50:25;10.20;99.90
20512;DHT22;10414;52.074;5.126;2024-01-06T08:52:52;10.20;99.90
20512;DHT22;10414;52.074;5.126;2024-01-06T08:55:19;10.20;99.90
20512;DHT22;10414;52.074;5.126;2024-01-06T08:57:47;10.20;99.90
20512;DHT22;10414;52.074;5.126;2024-01-06T09:00:15;10.20;99.90
20512;DHT22;10414;52.074;5.126;2024-01-06T09:02:42;10.20;99.90
20512;DHT22;10414;52.074;5.126;2024-01-06T09:05:09;10.20;99.90
20512;DHT22;10414;52.074;5.126;2024-01-06T09:07:36;10.20;99.90
20512;DHT22;10414;52.074;5.126;2024-01-06T09:10:03;10.30;99.90
20512;DHT22;10414;52.074;5.126;2024-01-06T09:12:30;10.30;99.90
20512;DHT22;10414;52.074;5.126;2024-01-06T09:14:59;10.30;99.90
20512;DHT22;10414;52.074;5.126;2024-01-06T09:17:25;10.30;99.90
20512;DHT22;10414;52.074;5.126;2024-01-06T09:19:52;10.20;99.90
20512;DHT22;10414;52.074;5.126;2024-01-06T09:22:19;10.30;99.90
20512;DHT22;10414;52.074;5.126;2024-01-06T09:24:46;10.30;99.90
20512;DHT22;10414;52.074;5.126;2024-01-06T09:27:13;10.30;99.90
20512;DHT22;10414;52.074;5.126;2024-01-06T09:29:40;10.30;99.90
20512;DHT22;10414;52.074;5.126;2024-01-06T09:32:08;10.30;99.90
20512;DHT22;10414;52.074;5.126;2024-01-06T09:34:35;10.30;99.90
20512;DHT22;10414;52.074;5.126;2024-01-06T09:37:02;10.30;99.90
20512;DHT22;10414;52.074;5.126;2024-01-06T09:39:29;10.30;99.90
20512;DHT22;10414;52.074;5.126;2024-01-06T09:41:57;10.30;99.90
20512;DHT22;10414;52.074;5.126;2024-01-06T09:44:24;10.40;99.90
20512;DHT22;10414;52.074;5.126;2024-01-06T09:46:51;10.40;99.90
20512;DHT22;10414;52.074;5.126;2024-01-06T09:49:23;10.40;99.90
20512;DHT22;10414;52.074;5.126;2024-01-06T09:51:50;10.50;99.90
20512;DHT22;10414;52.074;5.126;2024-01-06T09:54:22;10.50;99.90
20512;DHT22;10414;52.074;5.126;2024-01-06T09:56:50;10.50;99.90
20512;DHT22;10414;52.074;5.126;2024-01-06T09:59:18;10.60;99.90
20512;DHT22;10414;52.074;5.126;2024-01-06T10:01:45;10.60;99.90
20512;DHT22;10414;52.074;5.126;2024-01-06T10:04:12;10.60;99.90
20512;DHT22;10414;52.074;5.126;2024-01-06T10:06:41;10.60;99.90
20512;DHT22;10414;52.074;5.126;2024-01-06T10:09:08;10.60;99.90
20512;DHT22;10414;52.074;5.126;2024-01-06T10:11:37;10.70;99.90
20512;DHT22;10414;52.074;5.126;2024-01-06T10:14:06;10.60;99.90
20512;DHT22;10414;52.074;5.126;2024-01-06T10:16:34;10.70;99.90
20512;DHT22;10414;52.074;5.126;2024-01-06T10:19:01;10.70;99.90
20512;DHT22;10414;52.074;5.126;2024-01-06T10:21:28;10.70;99.90
20512;DHT22;10414;52.074;5.126;2024-01-06T10:23:56;10.80;99.90
20512;DHT22;10414;52.074;5.126;2024-01-06T10:26:23;10.80;99.90
20512;DHT22;10414;52.074;5.126;2024-01-06T10:28:50;10.80;99.90
20512;DHT22;10414;52.074;5.126;2024-01-06T10:31:17;10.80;99.90
20512;DHT22;10414;52.074;5.126;2024-01-06T10:33:44;10.90;99.90
20512;DHT22;10414;52.074;5.126;2024-01-06T10:36:12;10.90;99.90
20512;DHT22;10414;52.074;5.126;2024-01-06T10:38:40;10.90;99.90
20512;DHT22;10414;52.074;5.126;2024-01-06T10:41:09;10.90;99.90
20512;DHT22;10414;52.074;5.126;2024-01-06T10:43:38;10.90;99.90
20512;DHT22;10414;52.074;5.126;2024-01-06T10:46:07;10.90;99.90
20512;DHT22;10414;52.074;5.126;2024-01-06T10:48:36;10.90;99.90
20512;DHT22;10414;52.074;5.126;2024-01-06T10:51:08;10.90;99.90
20512;DHT22;10414;52.074;5.126;2024-01-06T10:53:35;10.90;99.90
20512;DHT22;10414;52.074;5.126;2024-01-06T10:56:05;10.90;99.90
20512;DHT22;10414;52.074;5.126;2024-01-06T10:58:35;11.00;99.90
20512;DHT22;10414;52.074;5.126;2024-01-06T11:01:08;10.90;99.90
20512;DHT22;10414;52.074;5.126;2024-01-06T11:03:36;10.90;99.90
20512;DHT22;10414;52.074;5.126;2024-01-06T11:06:04;11.00;99.90
20512;DHT22;10414;52.074;5.126;2024-01-06T11:08:32;11.00;99.90
20512;DHT22;10414;52.074;5.126;2024-01-06T11:11:00;11.00;99.90
20512;DHT22;10414;52.074;5.126;2024-01-06T11:13:27;11.00;99.90
20512;DHT22;10414;52.074;5.126;2024-01-06T11:15:55;10.90;99.90
20512;DHT22;10414;52.074;5.126;2024-01-06T11:18:35;11.00;99.90
20512;DHT22;10414;52.074;5.126;2024-01-06T11:21:16;10.90;99.90
20512;DHT22;10414;52.074;5.126;2024-01-06T11:23:44;11.00;99.90
20512;DHT22;10414;52.074;5.126;2024-01-06T11:26:13;11.00;99.90
20512;DHT22;10414;52.074;5.126;2024-01-06T11:28:44;11.00;99.90
20512;DHT22;10414;52.074;5.126;2024-01-06T11:31:13;11.00;99.90
20512;DHT22;10414;52.074;5.126;2024-01-06T11:33:43;11.00;99.90
20512;DHT22;10414;52.074;5.126;2024-01-06T11:36:14;11.10;99.90
20512;DHT22;10414;52.074;5.126;2024-01-06T11:38:41;11.10;99.90
20512;DHT22;10414;52.074;5.126;2024-01-06T11:41:50;11.10;99.90
20512;DHT22;10414;52.074;5.126;2024-01-06T11:44:18;11.20;99.90
20512;DHT22;10414;52.074;5.126;2024-01-06T11:46:47;11.20;99.90
20512;DHT22;10414;52.074;5.126;2024-01-06T11:49:15;11.10;99.90
20512;DHT22;10414;52.074;5.126;2024-01-06T11:51:43;11.10;99.90
20512;DHT22;10414;52.074;5.126;2024-01-06T11:54:10;11.20;99.90
20512;DHT22;10414;52.074;5.126;2024-01-06T11:56:38;11.20;99.90
20512;DHT22;10414;52.074;5.126;2024-01-06T11:59:05;11.10;99.90
20512;DHT22;10414;52.074;5.126;2024-01-06T12:01:36;11.20;99.90
20512;DHT22;10414;52.074;5.126;2024-01-06T12:04:05;11.20;99.90
20512;DHT22;10414;52.074;5.126;2024-01-06T12:06:32;11.20;99.90
20512;DHT22;10414;52.074;5.126;2024-01-06T12:09:05;11.10;99.90
20512;DHT22;10414;52.074;5.126;2024-01-06T12:11:32;11.10;99.90
20512;DHT22;10414;52.074;5.126;2024-01-06T12:13:59;11.10;99.90
20512;DHT22;10414;52.074;5.126;2024-01-06T12:16:26;11.10;99.90
20512;DHT22;10414;52.074;5.126;2024-01-06T12:18:54;11.10;99.90
20512;DHT22;10414;52.074;5.126;2024-01-06T12:21:24;11.20;99.90
20512;DHT22;10414;52.074;5.126;2024-01-06T12:23:51;11.20;99.90
20512;DHT22;10414;52.074;5.126;2024-01-06T12:26:18;11.20;99.90
20512;DHT22;10414;52.074;5.126;2024-01-06T12:28:45;11.20;99.90
20512;DHT22;10414;52.074;5.126;2024-01-06T12:31:12;11.10;99.90
20512;DHT22;10414;52.074;5.126;2024-01-06T12:33:39;11.20;99.90
20512;DHT22;10414;52.074;5.126;2024-01-06T12:36:07;11.20;99.90
20512;DHT22;10414;52.074;5.126;2024-01-06T12:38:35;11.10;99.90
20512;DHT22;10414;52.074;5.126;2024-01-06T12:41:03;11.10;99.90
20512;DHT22;10414;52.074;5.126;2024-01-06T12:43:30;11.10;99.90
20512;DHT22;10414;52.074;5.126;2024-01-06T12:45:57;11.10;99.90
20512;DHT22;10414;52.074;5.126;2024-01-06T12:48:24;11.20;99.90
20512;DHT22;10414;52.074;5.126;2024-01-06T12:50:51;11.20;99.90
20512;DHT22;10414;52.074;5.126;2024-01-06T12:53:18;11.20;99.90
20512;DHT22;10414;52.074;5.126;2024-01-06T12:55:46;11.20;99.90
20512;DHT22;10414;52.074;5.126;2024-01-06T12:58:13;11.20;99.90
20512;DHT22;10414;52.074;5.126;2024-01-06T13:00:40;11.20;99.90
20512;DHT22;10414;52.074;5.126;2024-01-06T13:03:07;11.20;99.90
20512;DHT22;10414;52.074;5.126;2024-01-06T13:05:34;11.20;99.90
20512;DHT22;10414;52.074;5.126;2024-01-06T13:08:01;11.10;99.90
20512;DHT22;10414;52.074;5.126;2024-01-06T13:10:29;11.10;99.90
20512;DHT22;10414;52.074;5.126;2024-01-06T13:12:57;11.00;99.90
20512;DHT22;10414;52.074;5.126;2024-01-06T13:15:24;11.00;99.90
20512;DHT22;10414;52.074;5.126;2024-01-06T13:17:51;11.10;99.90
20512;DHT22;10414;52.074;5.126;2024-01-06T13:20:18;11.00;99.90
20512;DHT22;10414;52.074;5.126;2024-01-06T13:22:45;11.10;99.90
20512;DHT22;10414;52.074;5.126;2024-01-06T13:25:12;11.00;99.90
20512;DHT22;10414;52.074;5.126;2024-01-06T13:27:39;11.10;99.90
20512;DHT22;10414;52.074;5.126;2024-01-06T13:30:08;11.10;99.90
20512;DHT22;10414;52.074;5.126;2024-01-06T13:32:38;11.10;99.90
20512;DHT22;10414;52.074;5.126;2024-01-06T13:35:06;11.10;99.90
20512;DHT22;10414;52.074;5.126;2024-01-06T13:37:33;11.00;99.90
20512;DHT22;10414;52.074;5.126;2024-01-06T13:40:00;11.00;99.90
20512;DHT22;10414;52.074;5.126;2024-01-06T13:42:27;11.00;99.90
20512;DHT22;10414;52.074;5.126;2024-01-06T13:44:54;11.10;99.90
20512;DHT22;10414;52.074;5.126;2024-01-06T13:47:22;11.00;99.90
20512;DHT22;10414;52.074;5.126;2024-01-06T13:49:49;11.10;99.90
20512;DHT22;10414;52.074;5.126;2024-01-06T13:52:16;11.00;99.90
20512;DHT22;10414;52.074;5.126;2024-01-06T13:54:43;11.10;99.90
20512;DHT22;10414;52.074;5.126;2024-01-06T13:57:09;11.10;99.90
20512;DHT22;10414;52.074;5.126;2024-01-06T13:59:36;11.10;99.90
20512;DHT22;10414;52.074;5.126;2024-01-06T14:02:08;11.00;99.90
20512;DHT22;10414;52.074;5.126;2024-01-06T14:04:37;11.00;99.90
20512;DHT22;10414;52.074;5.126;2024-01-06T14:07:04;11.00;99.90
20512;DHT22;10414;52.074;5.126;2024-01-06T14:09:31;11.10;99.90
20512;DHT22;10414;52.074;5.126;2024-01-06T14:11:59;11.10;99.90
20512;DHT22;10414;52.074;5.126;2024-01-06T14:14:26;11.10;99.90
20512;DHT22;10414;52.074;5.126;2024-01-06T14:16:53;11.10;99.90
20512;DHT22;10414;52.074;5.126;2024-01-06T14:19:20;11.10;99.90
20512;DHT22;10414;52.074;5.126;2024-01-06T14:21:48;11.10;99.90
20512;DHT22;10414;52.074;5.126;2024-01-06T14:24:16;11.00;99.90
20512;DHT22;10414;52.074;5.126;2024-01-06T14:26:44;11.00;99.90
20512;DHT22;10414;52.074;5.126;2024-01-06T14:29:11;11.00;99.90
20512;DHT22;10414;52.074;5.126;2024-01-06T14:31:41;11.00;99.90
20512;DHT22;10414;52.074;5.126;2024-01-06T14:34:09;11.00;99.90
20512;DHT22;10414;52.074;5.126;2024-01-06T14:36:36;11.00;99.90
20512;DHT22;10414;52.074;5.126;2024-01-06T14:39:04;11.00;99.90
20512;DHT22;10414;52.074;5.126;2024-01-06T14:41:32;10.90;99.90
20512;DHT22;10414;52.074;5.126;2024-01-06T14:43:59;10.90;99.90
20512;DHT22;10414;52.074;5.126;2024-01-06T14:46:26;11.00;99.90
20512;DHT22;10414;52.074;5.126;2024-01-06T14:48:52;11.00;99.90
20512;DHT22;10414;52.074;5.126;2024-01-06T14:51:20;11.00;99.90
20512;DHT22;10414;52.074;5.126;2024-01-06T14:53:47;11.00;99.90
20512;DHT22;10414;52.074;5.126;2024-01-06T14:56:15;11.00;99.90
20512;DHT22;10414;52.074;5.126;2024-01-06T14:58:42;11.00;99.90
20512;DHT22;10414;52.074;5.126;2024-01-06T15:01:09;11.00;99.90
20512;DHT22;10414;52.074;5.126;2024-01-06T15:03:36;11.00;99.90
20512;DHT22;10414;52.074;5.126;2024-01-06T15:06:03;11.00;99.90
20512;DHT22;10414;52.074;5.126;2024-01-06T15:08:30;11.00;99.90
20512;DHT22;10414;52.074;5.126;2024-01-06T15:10:57;11.00;99.90
20512;DHT22;10414;52.074;5.126;2024-01-06T15:13:25;10.90;99.90
20512;DHT22;10414;52.074;5.126;2024-01-06T15:15:52;10.90;99.90
20512;DHT22;10414;52.074;5.126;2024-01-06T15:18:20;10.90;99.90
20512;DHT22;10414;52.074;5.126;2024-01-06T15:20:46;10.80;99.90
20512;DHT22;10414;52.074;5.126;2024-01-06T15:23:13;10.80;99.90
20512;DHT22;10414;52.074;5.126;2024-01-06T15:25:41;10.80;99.90
20512;DHT22;10414;52.074;5.126;2024-01-06T15:28:08;10.80;99.90
20512;DHT22;10414;52.074;5.126;2024-01-06T15:30:36;10.70;99.90
20512;DHT22;10414;52.074;5.126;2024-01-06T15:33:04;10.80;99.90
20512;DHT22;10414;52.074;5.126;2024-01-06T15:35:31;10.70;99.90
20512;DHT22;10414;52.074;5.126;2024-01-06T15:37:58;10.70;99.90